createdAt,value
2023-02-07T00:01:19.117Z,1.90
2023-02-07T00:03:46.493Z,2.30
2023-02-07T00:06:16.343Z,2.10
2023-02-07T00:08:43.788Z,1.77
2023-02-07T00:11:13.964Z,1.60
2023-02-07T00:13:40.486Z,1.70
2023-02-07T00:16:07.303Z,1.70
2023-02-07T00:18:34.449Z,1.97
2023-02-07T00:21:02.159Z,2.63
2023-02-07T00:23:29.105Z,2.40
2023-02-07T00:25:55.660Z,1.90
2023-02-07T00:28:23.912Z,2.00
2023-02-07T00:30:50.852Z,1.60
2023-02-07T00:33:17.445Z,1.90
2023-02-07T00:35:43.937Z,2.20
2023-02-07T00:38:10.472Z,2.43
2023-02-07T00:40:36.989Z,2.53
2023-02-07T00:43:03.461Z,1.97
2023-02-07T00:45:31.312Z,2.10
2023-02-07T00:47:57.807Z,1.80
2023-02-07T00:50:24.322Z,1.63
2023-02-07T00:52:50.846Z,1.43
2023-02-07T00:55:17.417Z,1.40
2023-02-07T00:57:43.930Z,1.60
2023-02-07T01:00:11.466Z,1.40
2023-02-07T01:02:39.328Z,1.30
2023-02-07T01:05:06.303Z,1.50
2023-02-07T01:07:33.599Z,1.70
2023-02-07T01:10:00.142Z,1.53
2023-02-07T01:12:26.707Z,1.60
2023-02-07T01:14:53.195Z,1.70
2023-02-07T01:17:19.664Z,1.87
2023-02-07T01:19:47.507Z,1.80
2023-02-07T01:22:14.038Z,1.83
2023-02-07T01:24:40.603Z,2.10
2023-02-07T01:27:07.153Z,1.80
2023-02-07T01:29:33.660Z,2.03
2023-02-07T01:32:00.150Z,2.37
2023-02-07T01:34:26.677Z,2.10
2023-02-07T01:36:54.552Z,2.30
2023-02-07T01:39:21.068Z,2.43
2023-02-07T01:41:47.576Z,2.17
2023-02-07T01:44:47.297Z,2.07
2023-02-07T01:47:17.592Z,3.13
2023-02-07T01:49:44.800Z,2.40
2023-02-07T01:52:28.781Z,2.20
2023-02-07T01:55:00.681Z,2.13
2023-02-07T01:57:27.518Z,2.20
2023-02-07T01:59:55.944Z,2.10
2023-02-07T02:02:24.799Z,2.40
2023-02-07T02:04:53.462Z,1.90
2023-02-07T02:07:22.837Z,2.20
2023-02-07T02:09:49.341Z,2.23
2023-02-07T02:13:01.356Z,2.27
2023-02-07T02:15:42.812Z,2.03
2023-02-07T02:18:38.411Z,1.83
2023-02-07T02:21:33.141Z,2.10
2023-02-07T02:24:33.544Z,2.00
2023-02-07T02:27:05.731Z,2.30
2023-02-07T02:29:53.014Z,2.50
2023-02-07T02:32:52.634Z,2.10
2023-02-07T02:35:26.496Z,2.50
2023-02-07T02:37:58.385Z,2.43
2023-02-07T02:40:32.826Z,2.57
2023-02-07T02:43:04.401Z,2.10
2023-02-07T02:45:35.739Z,2.37
2023-02-07T02:48:05.935Z,2.27
2023-02-07T02:50:34.577Z,2.67
2023-02-07T02:53:01.190Z,2.93
2023-02-07T02:55:52.054Z,3.07
2023-02-07T02:58:26.040Z,2.63
2023-02-07T03:01:05.862Z,2.90
2023-02-07T03:03:50.130Z,2.60
2023-02-07T03:06:35.675Z,3.40
2023-02-07T03:09:12.610Z,3.63
2023-02-07T03:11:43.199Z,3.00
2023-02-07T03:14:17.124Z,3.30
2023-02-07T03:16:51.728Z,2.90
2023-02-07T03:19:24.919Z,2.93
2023-02-07T03:21:54.506Z,2.97
2023-02-07T03:24:23.717Z,2.73
2023-02-07T03:26:54.103Z,2.50
2023-02-07T03:29:21.564Z,2.70
2023-02-07T03:31:51.513Z,2.63
2023-02-07T03:34:23.244Z,2.80
2023-02-07T03:36:55.203Z,2.30
2023-02-07T03:39:21.901Z,2.20
2023-02-07T03:41:53.467Z,2.20
2023-02-07T03:44:24.303Z,2.53
2023-02-07T03:46:51.698Z,2.00
2023-02-07T03:49:18.314Z,2.17
2023-02-07T03:51:46.319Z,2.57
2023-02-07T03:54:13.083Z,2.67
2023-02-07T03:56:39.795Z,2.50
2023-02-07T03:59:06.367Z,2.83
2023-02-07T04:01:32.884Z,2.87
2023-02-07T04:03:59.410Z,3.50
2023-02-07T04:06:25.920Z,2.90
2023-02-07T04:08:53.798Z,3.10
2023-02-07T04:11:20.290Z,2.97
2023-02-07T04:13:46.775Z,3.40
2023-02-07T04:16:14.420Z,4.17
2023-02-07T04:18:40.968Z,3.30
2023-02-07T04:21:08.747Z,4.00
2023-02-07T04:23:36.068Z,3.70
2023-02-07T04:26:04.284Z,3.77
2023-02-07T04:28:31.086Z,3.33
2023-02-07T04:30:57.669Z,4.07
2023-02-07T04:33:24.262Z,4.23
2023-02-07T04:35:54.399Z,3.90
2023-02-07T04:38:20.892Z,4.03
2023-02-07T04:40:47.417Z,4.30
2023-02-07T04:43:15.283Z,4.10
2023-02-07T04:45:41.829Z,4.03
2023-02-07T04:48:08.376Z,4.60
2023-02-07T04:50:34.872Z,3.80
2023-02-07T04:53:01.390Z,3.83
2023-02-07T04:55:28.031Z,4.07
2023-02-07T04:57:54.556Z,4.57
2023-02-07T05:00:22.464Z,4.53
2023-02-07T05:02:49.295Z,4.30
2023-02-07T05:05:15.805Z,4.37
2023-02-07T05:07:42.332Z,4.40
2023-02-07T05:10:09.177Z,4.60
2023-02-07T05:12:35.700Z,4.80
2023-02-07T05:15:02.325Z,5.03
2023-02-07T05:17:30.288Z,4.47
2023-02-07T05:19:56.807Z,4.37
2023-02-07T05:22:23.367Z,5.57
2023-02-07T05:24:49.864Z,5.07
2023-02-07T05:27:16.362Z,5.40
2023-02-07T05:29:42.901Z,4.73
2023-02-07T05:32:11.667Z,4.47
2023-02-07T05:34:39.529Z,4.60
2023-02-07T05:37:06.044Z,5.30
2023-02-07T05:39:32.543Z,5.30
2023-02-07T05:41:59.061Z,4.83
2023-02-07T05:44:25.645Z,5.33
2023-02-07T05:46:52.746Z,5.63
2023-02-07T05:49:19.335Z,5.60
2023-02-07T05:51:47.258Z,5.37
2023-02-07T05:54:13.749Z,5.87
2023-02-07T05:56:40.242Z,4.70
2023-02-07T05:59:06.749Z,5.47
2023-02-07T06:01:33.280Z,5.60
2023-02-07T06:03:59.801Z,5.50
2023-02-07T06:06:26.354Z,5.60
2023-02-07T06:08:54.225Z,6.80
2023-02-07T06:11:20.746Z,6.00
2023-02-07T06:13:47.268Z,5.83
2023-02-07T06:16:13.796Z,4.83
2023-02-07T06:18:40.367Z,5.30
2023-02-07T06:21:06.954Z,5.53
2023-02-07T06:23:33.521Z,6.17
2023-02-07T06:26:01.371Z,6.57
2023-02-07T06:28:27.890Z,6.40
2023-02-07T06:30:54.521Z,6.90
2023-02-07T06:33:21.107Z,7.37
2023-02-07T06:35:47.678Z,6.33
2023-02-07T06:38:14.500Z,6.37
2023-02-07T06:40:41.572Z,6.53
2023-02-07T06:43:10.542Z,6.03
2023-02-07T06:45:37.381Z,5.77
2023-02-07T06:48:04.365Z,6.20
2023-02-07T06:50:30.877Z,6.40
2023-02-07T06:52:57.414Z,6.43
2023-02-07T06:55:23.940Z,6.00
2023-02-07T06:57:50.431Z,6.60
2023-02-07T07:00:19.086Z,6.40
2023-02-07T07:02:45.659Z,6.23
2023-02-07T07:05:12.252Z,6.20
2023-02-07T07:07:39.075Z,6.07
2023-02-07T07:10:06.441Z,5.90
2023-02-07T07:12:33.030Z,6.00
2023-02-07T07:14:59.520Z,7.00
2023-02-07T07:17:27.382Z,6.73
2023-02-07T07:19:53.875Z,6.10
2023-02-07T07:22:21.118Z,6.53
2023-02-07T07:24:47.769Z,7.43
2023-02-07T07:27:14.293Z,6.90
2023-02-07T07:29:40.810Z,6.03
2023-02-07T07:32:07.336Z,5.43
2023-02-07T07:34:35.184Z,5.97
2023-02-07T07:37:01.682Z,5.50
2023-02-07T07:39:28.216Z,5.17
2023-02-07T07:41:54.821Z,5.63
2023-02-07T07:44:21.637Z,5.40
2023-02-07T07:46:48.210Z,5.73
2023-02-07T07:49:14.712Z,5.43
2023-02-07T07:51:42.632Z,6.07
2023-02-07T07:54:09.119Z,5.90
2023-02-07T07:56:35.663Z,6.17
2023-02-07T07:59:06.105Z,6.10
2023-02-07T08:01:38.764Z,5.67
2023-02-07T08:04:05.388Z,6.47
2023-02-07T08:06:31.973Z,6.00
2023-02-07T08:08:59.898Z,6.00
2023-02-07T08:11:26.419Z,6.43
2023-02-07T08:13:52.952Z,6.57
2023-02-07T08:16:19.538Z,5.73
2023-02-07T08:18:46.111Z,5.13
2023-02-07T08:21:12.750Z,6.07
2023-02-07T08:23:39.275Z,6.23
2023-02-07T08:26:07.283Z,5.17
2023-02-07T08:28:33.951Z,5.77
2023-02-07T08:31:00.922Z,5.43
2023-02-07T08:33:30.036Z,5.80
2023-02-07T08:35:56.880Z,6.10
2023-02-07T08:38:23.369Z,5.77
2023-02-07T08:40:50.424Z,5.67
2023-02-07T08:43:18.302Z,5.83
2023-02-07T08:45:48.471Z,6.60
2023-02-07T08:48:15.230Z,7.20
2023-02-07T08:50:42.042Z,5.90
2023-02-07T08:53:08.557Z,7.20
2023-02-07T08:55:35.113Z,6.10
2023-02-07T08:58:01.670Z,6.73
2023-02-07T09:00:29.511Z,6.30
2023-02-07T09:02:56.073Z,5.50
2023-02-07T09:05:22.577Z,5.90
2023-02-07T09:07:49.173Z,6.13
2023-02-07T09:10:15.700Z,5.60
2023-02-07T09:12:42.242Z,5.07
2023-02-07T09:15:09.458Z,6.60
2023-02-07T09:17:37.379Z,5.93
2023-02-07T09:20:04.150Z,6.00
2023-02-07T09:22:30.672Z,6.17
2023-02-07T09:24:57.171Z,6.20
2023-02-07T09:27:23.663Z,5.83
2023-02-07T09:29:50.156Z,5.63
2023-02-07T09:32:16.694Z,6.83
2023-02-07T09:34:44.844Z,7.63
2023-02-07T09:37:11.387Z,6.20
2023-02-07T09:39:37.931Z,6.73
2023-02-07T09:42:15.766Z,5.40
2023-02-07T09:44:52.786Z,6.60
2023-02-07T09:47:22.068Z,6.60
2023-02-07T09:49:54.209Z,5.77
2023-02-07T09:52:24.384Z,6.37
2023-02-07T09:54:53.413Z,6.00
2023-02-07T09:57:24.948Z,5.83
2023-02-07T09:59:55.178Z,5.60
2023-02-07T10:02:26.012Z,5.87
2023-02-07T10:04:57.388Z,5.10
2023-02-07T10:07:23.961Z,5.93
2023-02-07T10:09:50.518Z,6.23
2023-02-07T10:12:34.700Z,6.40
2023-02-07T10:15:21.041Z,5.57
2023-02-07T10:18:03.010Z,6.50
2023-02-07T10:20:37.705Z,6.20
2023-02-07T10:23:17.743Z,6.00
2023-02-07T10:25:54.460Z,6.33
2023-02-07T10:28:48.387Z,6.67
2023-02-07T10:31:16.299Z,5.80
2023-02-07T10:33:50.414Z,6.10
2023-02-07T10:36:18.652Z,5.10
2023-02-07T10:38:56.731Z,5.07
2023-02-07T10:41:33.166Z,5.40
2023-02-07T10:43:59.743Z,5.43
2023-02-07T10:46:26.781Z,5.63
2023-02-07T10:48:53.328Z,5.63
2023-02-07T10:51:27.989Z,5.93
2023-02-07T10:54:07.190Z,6.20
2023-02-07T10:56:35.303Z,5.23
2023-02-07T10:59:01.814Z,5.03
2023-02-07T11:01:30.844Z,5.50
2023-02-07T11:03:58.260Z,4.77
2023-02-07T11:06:27.209Z,5.47
2023-02-07T11:09:12.628Z,5.17
2023-02-07T11:11:39.402Z,5.70
2023-02-07T11:14:07.755Z,5.07
2023-02-07T11:16:35.158Z,4.70
2023-02-07T11:19:03.819Z,4.83
2023-02-07T11:21:35.550Z,5.03
2023-02-07T11:24:06.245Z,5.10
2023-02-07T11:26:35.253Z,5.40
2023-02-07T11:29:06.992Z,5.10
2023-02-07T11:31:36.475Z,5.63
2023-02-07T11:34:30.522Z,5.03
2023-02-07T11:37:10.978Z,4.97
2023-02-07T11:39:43.834Z,5.40
2023-02-07T11:42:12.910Z,5.10
2023-02-07T11:44:42.218Z,4.80
2023-02-07T11:47:14.885Z,4.87
2023-02-07T11:49:43.019Z,4.80
2023-02-07T11:52:11.826Z,5.20
2023-02-07T11:54:40.094Z,4.73
2023-02-07T11:57:10.741Z,5.20
2023-02-07T11:59:46.498Z,4.60
2023-02-07T12:02:18.600Z,4.40
2023-02-07T12:04:45.373Z,4.77
2023-02-07T12:07:18.386Z,5.07
2023-02-07T12:09:48.925Z,4.07
2023-02-07T12:12:19.013Z,4.47
2023-02-07T12:14:52.359Z,4.80
2023-02-07T12:17:25.043Z,4.40
2023-02-07T12:19:55.578Z,4.63
2023-02-07T12:22:26.669Z,3.87
2023-02-07T12:24:59.513Z,4.10
2023-02-07T12:27:30.365Z,3.90
2023-02-07T12:30:01.747Z,3.90
2023-02-07T12:32:37.898Z,3.83
2023-02-07T12:35:14.355Z,4.57
2023-02-07T12:37:47.850Z,4.90
2023-02-07T12:40:21.132Z,5.20
2023-02-07T12:42:54.681Z,5.20
2023-02-07T12:45:34.378Z,5.20
2023-02-07T12:48:13.843Z,8.17
2023-02-07T12:51:00.457Z,6.80
2023-02-07T12:53:41.106Z,6.30
2023-02-07T12:56:23.775Z,6.27
2023-02-07T12:58:58.468Z,5.83
2023-02-07T13:01:34.605Z,5.57
2023-02-07T13:04:29.970Z,5.53
2023-02-07T13:07:06.976Z,7.37
2023-02-07T13:09:42.975Z,5.50
2023-02-07T13:12:14.742Z,5.33
2023-02-07T13:14:53.121Z,4.77
2023-02-07T13:17:36.090Z,5.03
2023-02-07T13:20:06.866Z,5.93
2023-02-07T13:22:40.193Z,4.63
2023-02-07T13:25:18.990Z,6.93
2023-02-07T13:27:46.177Z,6.07
2023-02-07T13:30:15.712Z,5.73
2023-02-07T13:32:43.152Z,5.20
2023-02-07T13:35:14.003Z,5.23
2023-02-07T13:37:49.772Z,5.00
2023-02-07T13:40:33.667Z,5.63
2023-02-07T13:43:06.044Z,5.27
2023-02-07T13:45:45.631Z,5.17
2023-02-07T13:48:21.770Z,4.80
2023-02-07T13:50:56.940Z,5.40
2023-02-07T13:53:35.610Z,4.83
2023-02-07T13:56:09.459Z,5.10
2023-02-07T13:58:51.943Z,5.13
2023-02-07T14:01:20.163Z,4.10
2023-02-07T14:04:01.968Z,3.23
2023-02-07T14:06:30.533Z,3.23
2023-02-07T14:09:04.613Z,3.07
2023-02-07T14:11:40.086Z,3.30
2023-02-07T14:14:15.227Z,2.97
2023-02-07T14:16:48.421Z,2.97
2023-02-07T14:19:15.135Z,3.17
2023-02-07T14:21:42.310Z,3.13
2023-02-07T14:24:30.060Z,3.50
2023-02-07T14:27:01.741Z,3.90
2023-02-07T14:29:54.270Z,4.40
2023-02-07T14:32:40.737Z,3.57
2023-02-07T14:35:32.761Z,3.07
2023-02-07T14:38:08.425Z,3.27
2023-02-07T14:40:49.591Z,3.20
2023-02-07T14:43:23.273Z,2.90
2023-02-07T14:46:03.638Z,3.40
2023-02-07T14:48:35.787Z,3.20
2023-02-07T14:51:03.107Z,2.77
2023-02-07T14:53:30.076Z,3.17
2023-02-07T14:56:02.683Z,3.57
2023-02-07T14:58:36.818Z,3.40
2023-02-07T15:01:11.331Z,3.80
2023-02-07T15:03:37.932Z,3.33
2023-02-07T15:06:23.821Z,3.50
2023-02-07T15:08:59.366Z,3.30
2023-02-07T15:11:26.741Z,3.47
2023-02-07T15:13:57.086Z,3.00
2023-02-07T15:16:26.573Z,3.40
2023-02-07T15:18:57.132Z,3.07
2023-02-07T15:21:30.183Z,2.70
2023-02-07T15:24:00.252Z,2.90
2023-02-07T15:26:27.053Z,3.40
2023-02-07T15:28:59.609Z,3.23
2023-02-07T15:31:26.609Z,3.00
2023-02-07T15:33:55.616Z,3.50
2023-02-07T15:36:34.080Z,2.90
2023-02-07T15:39:03.608Z,3.10
2023-02-07T15:41:30.513Z,3.27
2023-02-07T15:43:59.987Z,2.73
2023-02-07T15:46:34.720Z,3.30
2023-02-07T15:49:01.303Z,9.70
2023-02-07T15:51:30.986Z,7.10
2023-02-07T15:54:00.564Z,4.27
2023-02-07T15:56:29.078Z,3.97
2023-02-07T15:59:01.455Z,4.43
2023-02-07T16:01:29.406Z,3.50
2023-02-07T16:03:57.494Z,3.97
2023-02-07T16:06:25.744Z,3.43
2023-02-07T16:08:53.967Z,3.40
2023-02-07T16:11:34.879Z,3.17
2023-02-07T16:14:12.646Z,3.27
2023-02-07T16:16:40.738Z,3.20
2023-02-07T16:19:15.584Z,3.27
2023-02-07T16:21:42.966Z,2.97
2023-02-07T16:24:15.279Z,3.50
2023-02-07T16:26:43.202Z,3.53
2023-02-07T16:29:16.132Z,3.30
2023-02-07T16:31:43.581Z,3.40
2023-02-07T16:34:12.143Z,3.20
2023-02-07T16:36:38.685Z,3.80
2023-02-07T16:39:05.212Z,4.10
2023-02-07T16:41:33.720Z,3.67
2023-02-07T16:44:01.778Z,3.13
2023-02-07T16:46:29.665Z,3.27
2023-02-07T16:48:56.212Z,2.90
2023-02-07T16:51:23.021Z,2.93
2023-02-07T16:53:50.318Z,3.50
2023-02-07T16:56:23.708Z,4.50
2023-02-07T16:58:50.259Z,3.70
2023-02-07T17:01:19.314Z,3.33
2023-02-07T17:03:47.619Z,3.50
2023-02-07T17:06:14.696Z,4.30
2023-02-07T17:08:41.263Z,4.60
2023-02-07T17:11:18.451Z,3.83
2023-02-07T17:13:44.972Z,3.60
2023-02-07T17:16:12.640Z,3.10
2023-02-07T17:18:39.327Z,4.33
2023-02-07T17:21:07.802Z,5.07
2023-02-07T17:23:34.521Z,7.07
2023-02-07T17:26:01.322Z,11.90
2023-02-07T17:28:27.823Z,14.17
2023-02-07T17:30:54.431Z,17.20
2023-02-07T17:33:20.963Z,16.27
2023-02-07T17:35:47.511Z,17.17
2023-02-07T17:38:15.393Z,17.90
2023-02-07T17:40:42.395Z,17.97
2023-02-07T17:43:09.460Z,17.20
2023-02-07T17:45:37.033Z,15.83
2023-02-07T17:48:04.436Z,13.70
2023-02-07T17:50:33.953Z,13.37
2023-02-07T17:53:01.372Z,11.90
2023-02-07T17:55:30.513Z,11.23
2023-02-07T17:57:57.153Z,12.27
2023-02-07T18:00:26.011Z,12.67
2023-02-07T18:02:52.621Z,13.13
2023-02-07T18:05:19.266Z,16.17
2023-02-07T18:07:47.055Z,19.03
2023-02-07T18:10:17.586Z,17.77
2023-02-07T18:12:45.582Z,14.10
2023-02-07T18:15:12.858Z,13.53
2023-02-07T18:17:39.942Z,12.30
2023-02-07T18:20:08.408Z,12.30
2023-02-07T18:22:34.970Z,13.93
2023-02-07T18:25:01.518Z,13.73
2023-02-07T18:27:28.058Z,15.07
2023-02-07T18:29:55.993Z,13.50
2023-02-07T18:32:22.520Z,11.10
2023-02-07T18:34:49.054Z,9.63
2023-02-07T18:37:15.564Z,10.63
2023-02-07T18:39:42.209Z,11.83
2023-02-07T18:42:08.740Z,11.40
2023-02-07T18:44:35.273Z,9.97
2023-02-07T18:47:03.296Z,11.43
2023-02-07T18:49:29.850Z,9.17
2023-02-07T18:51:56.378Z,8.67
2023-02-07T18:54:22.960Z,8.60
2023-02-07T18:56:49.484Z,10.27
2023-02-07T18:59:16.004Z,10.53
2023-02-07T19:01:42.543Z,10.43
2023-02-07T19:04:10.454Z,11.90
2023-02-07T19:06:37.066Z,11.07
2023-02-07T19:09:03.791Z,11.00
2023-02-07T19:11:30.294Z,11.10
2023-02-07T19:13:56.790Z,12.33
2023-02-07T19:16:24.466Z,10.80
2023-02-07T19:18:51.000Z,11.03
2023-02-07T19:21:20.611Z,13.87
2023-02-07T19:23:47.707Z,14.73
2023-02-07T19:26:14.320Z,12.83
2023-02-07T19:28:40.915Z,11.77
2023-02-07T19:31:10.401Z,10.83
2023-02-07T19:33:36.992Z,7.90
2023-02-07T19:36:05.131Z,7.60
2023-02-07T19:38:32.997Z,8.70
2023-02-07T19:40:59.508Z,9.40
2023-02-07T19:43:26.055Z,9.57
2023-02-07T19:45:52.618Z,9.67
2023-02-07T19:48:19.412Z,10.90
2023-02-07T19:50:45.925Z,8.40
2023-02-07T19:53:12.445Z,9.13
2023-02-07T19:55:40.864Z,8.67
2023-02-07T19:58:07.680Z,9.63
2023-02-07T20:00:34.235Z,7.20
2023-02-07T20:03:00.746Z,7.77
2023-02-07T20:05:27.526Z,7.07
2023-02-07T20:07:54.276Z,8.53
2023-02-07T20:10:20.816Z,7.70
2023-02-07T20:12:48.713Z,8.30
2023-02-07T20:15:15.368Z,8.17
2023-02-07T20:17:41.978Z,8.50
2023-02-07T20:20:09.353Z,7.80
2023-02-07T20:22:35.885Z,8.03
2023-02-07T20:25:03.136Z,6.97
2023-02-07T20:27:29.679Z,6.57
2023-02-07T20:29:57.668Z,6.17
2023-02-07T20:32:24.172Z,6.37
2023-02-07T20:34:50.722Z,6.40
2023-02-07T20:37:17.234Z,7.40
2023-02-07T20:39:43.763Z,7.63
2023-02-07T20:42:10.315Z,10.57
2023-02-07T20:44:36.948Z,12.97
2023-02-07T20:47:04.958Z,12.10
2023-02-07T20:49:31.737Z,12.80
2023-02-07T20:51:59.682Z,14.10
2023-02-07T20:54:28.768Z,14.50
2023-02-07T20:56:56.448Z,13.37
2023-02-07T20:59:24.878Z,12.77
2023-02-07T21:01:51.423Z,12.60
2023-02-07T21:04:19.474Z,12.67
2023-02-07T21:06:46.252Z,13.80
2023-02-07T21:09:13.673Z,13.93
2023-02-07T21:11:43.085Z,14.47
2023-02-07T21:14:13.744Z,14.00
2023-02-07T21:16:40.441Z,14.60
2023-02-07T21:19:07.205Z,12.63
2023-02-07T21:21:35.123Z,11.80
2023-02-07T21:24:01.977Z,9.93
2023-02-07T21:26:28.805Z,9.83
2023-02-07T21:28:57.941Z,10.20
2023-02-07T21:31:24.615Z,9.07
2023-02-07T21:33:51.282Z,9.97
2023-02-07T21:36:20.887Z,10.03
2023-02-07T21:38:50.613Z,10.00
2023-02-07T21:41:19.875Z,8.27
2023-02-07T21:43:46.485Z,7.20
2023-02-07T21:46:14.424Z,7.23
2023-02-07T21:48:40.966Z,7.77
2023-02-07T21:51:09.048Z,7.80
2023-02-07T21:53:35.969Z,7.83
2023-02-07T21:56:06.218Z,7.13
2023-02-07T21:58:33.092Z,7.93
2023-02-07T22:01:05.940Z,7.73
2023-02-07T22:03:32.528Z,7.20
2023-02-07T22:05:59.097Z,6.50
2023-02-07T22:08:25.644Z,7.67
2023-02-07T22:10:52.249Z,8.70
2023-02-07T22:13:20.245Z,10.03
2023-02-07T22:15:47.729Z,9.70
2023-02-07T22:18:14.444Z,9.17
2023-02-07T22:20:41.403Z,8.47
2023-02-07T22:23:08.158Z,8.70
2023-02-07T22:25:34.708Z,8.37
2023-02-07T22:28:01.255Z,8.27
2023-02-07T22:30:29.237Z,8.30
2023-02-07T22:32:55.872Z,8.90
2023-02-07T22:35:22.389Z,9.00
2023-02-07T22:37:48.954Z,8.37
2023-02-07T22:40:15.672Z,7.77
2023-02-07T22:42:42.214Z,6.23
2023-02-07T22:45:09.376Z,6.17
2023-02-07T22:47:37.207Z,6.73
2023-02-07T22:50:03.871Z,6.60
2023-02-07T22:52:33.090Z,7.37
2023-02-07T22:54:59.598Z,7.10
2023-02-07T22:57:26.077Z,6.83
2023-02-07T22:59:52.615Z,6.80
2023-02-07T23:02:19.140Z,9.03
2023-02-07T23:04:47.118Z,9.00
2023-02-07T23:07:13.588Z,9.20
2023-02-07T23:09:40.139Z,8.10
2023-02-07T23:12:06.757Z,6.70
2023-02-07T23:14:33.336Z,6.73
2023-02-07T23:16:59.829Z,7.00
2023-02-07T23:19:26.373Z,6.80
2023-02-07T23:21:54.229Z,6.83
2023-02-07T23:24:20.719Z,7.17
2023-02-07T23:26:47.215Z,7.73
2023-02-07T23:29:13.724Z,7.47
2023-02-07T23:31:40.284Z,7.67
2023-02-07T23:34:07.023Z,7.80
2023-02-07T23:36:33.582Z,7.87
2023-02-07T23:39:01.888Z,7.60
2023-02-07T23:41:29.118Z,7.93
2023-02-07T23:43:55.931Z,7.53
2023-02-07T23:46:23.031Z,7.30
2023-02-07T23:48:49.523Z,7.67
2023-02-07T23:51:16.056Z,7.77
2023-02-07T23:53:43.409Z,7.50
2023-02-07T23:56:15.888Z,7.30
2023-02-07T23:58:42.445Z,7.27
